sensor_id;sensor_type;location;lat;lon;timestamp;P1;durP1;ratioP1;P2;durP2;ratioP2
28762;SDS011;15918;51.270;6.522;2023-01-16T00:01:49;3.00;;;1.27;;
28762;SDS011;15918;51.270;6.522;2023-01-16T00:04:15;4.70;;;1.70;;
28762;SDS011;15918;51.270;6.522;2023-01-16T00:06:41;9.52;;;1.95;;
28762;SDS011;15918;51.270;6.522;2023-01-16T00:09:07;4.65;;;1.63;;
28762;SDS011;15918;51.270;6.522;2023-01-16T00:11:33;4.90;;;1.70;;
28762;SDS011;15918;51.270;6.522;2023-01-16T00:13:59;5.25;;;1.42;;
28762;SDS011;15918;51.270;6.522;2023-01-16T00:16:27;5.03;;;2.00;;
28762;SDS011;15918;51.270;6.522;2023-01-16T00:18:53;3.90;;;1.60;;
28762;SDS011;15918;51.270;6.522;2023-01-16T00:21:20;6.32;;;1.60;;
28762;SDS011;15918;51.270;6.522;2023-01-16T00:23:50;6.88;;;1.33;;
28762;SDS011;15918;51.270;6.522;2023-01-16T00:26:19;3.58;;;1.45;;
28762;SDS011;15918;51.270;6.522;2023-01-16T00:28:45;6.32;;;1.70;;
28762;SDS011;15918;51.270;6.522;2023-01-16T00:31:10;6.88;;;1.80;;
28762;SDS011;15918;51.270;6.522;2023-01-16T00:33:36;6.13;;;1.45;;
28762;SDS011;15918;51.270;6.522;2023-01-16T00:36:02;8.90;;;2.03;;
28762;SDS011;15918;51.270;6.522;2023-01-16T00:38:28;6.15;;;1.65;;
28762;SDS011;15918;51.270;6.522;2023-01-16T00:40:54;6.63;;;1.38;;
28762;SDS011;15918;51.270;6.522;2023-01-16T00:43:21;4.30;;;1.38;;
28762;SDS011;15918;51.270;6.522;2023-01-16T00:45:47;3.38;;;1.10;;
28762;SDS011;15918;51.270;6.522;2023-01-16T00:48:12;4.68;;;1.48;;
28762;SDS011;15918;51.270;6.522;2023-01-16T00:50:38;4.90;;;1.55;;
28762;SDS011;15918;51.270;6.522;2023-01-16T00:53:04;3.65;;;1.58;;
28762;SDS011;15918;51.270;6.522;2023-01-16T00:55:32;5.88;;;1.77;;
28762;SDS011;15918;51.270;6.522;2023-01-16T00:57:58;4.60;;;1.23;;
28762;SDS011;15918;51.270;6.522;2023-01-16T01:00:24;6.60;;;2.08;;
28762;SDS011;15918;51.270;6.522;2023-01-16T01:02:50;5.45;;;1.35;;
28762;SDS011;15918;51.270;6.522;2023-01-16T01:05:16;5.55;;;1.98;;
28762;SDS011;15918;51.270;6.522;2023-01-16T01:07:42;7.43;;;2.05;;
28762;SDS011;15918;51.270;6.522;2023-01-16T01:10:08;5.35;;;1.50;;
28762;SDS011;15918;51.270;6.522;2023-01-16T01:12:34;3.08;;;1.23;;
28762;SDS011;15918;51.270;6.522;2023-01-16T01:15:00;3.47;;;1.30;;
28762;SDS011;15918;51.270;6.522;2023-01-16T01:17:26;4.82;;;1.60;;
28762;SDS011;15918;51.270;6.522;2023-01-16T01:19:51;3.72;;;1.10;;
28762;SDS011;15918;51.270;6.522;2023-01-16T01:22:17;3.63;;;1.35;;
28762;SDS011;15918;51.270;6.522;2023-01-16T01:24:43;5.97;;;1.38;;
28762;SDS011;15918;51.270;6.522;2023-01-16T01:27:12;4.75;;;1.40;;
28762;SDS011;15918;51.270;6.522;2023-01-16T01:29:38;3.67;;;1.70;;
28762;SDS011;15918;51.270;6.522;2023-01-16T01:32:03;5.93;;;1.38;;
28762;SDS011;15918;51.270;6.522;2023-01-16T01:34:30;7.50;;;1.42;;
28762;SDS011;15918;51.270;6.522;2023-01-16T01:36:58;6.10;;;1.65;;
28762;SDS011;15918;51.270;6.522;2023-01-16T01:39:28;7.43;;;1.60;;
28762;SDS011;15918;51.270;6.522;2023-01-16T01:41:53;7.18;;;1.65;;
28762;SDS011;15918;51.270;6.522;2023-01-16T01:44:50;7.38;;;1.75;;
28762;SDS011;15918;51.270;6.522;2023-01-16T01:47:19;5.95;;;1.65;;
28762;SDS011;15918;51.270;6.522;2023-01-16T01:49:48;8.23;;;1.63;;
28762;SDS011;15918;51.270;6.522;2023-01-16T01:52:15;4.32;;;1.40;;
28762;SDS011;15918;51.270;6.522;2023-01-16T01:54:45;5.65;;;1.40;;
28762;SDS011;15918;51.270;6.522;2023-01-16T01:57:15;3.20;;;1.70;;
28762;SDS011;15918;51.270;6.522;2023-01-16T01:59:46;5.18;;;1.42;;
28762;SDS011;15918;51.270;6.522;2023-01-16T02:02:22;8.90;;;1.50;;
28762;SDS011;15918;51.270;6.522;2023-01-16T02:04:50;4.72;;;1.83;;
28762;SDS011;15918;51.270;6.522;2023-01-16T02:07:22;5.40;;;1.83;;
28762;SDS011;15918;51.270;6.522;2023-01-16T02:09:50;3.92;;;1.35;;
28762;SDS011;15918;51.270;6.522;2023-01-16T02:12:20;6.07;;;1.80;;
28762;SDS011;15918;51.270;6.522;2023-01-16T02:14:46;8.68;;;1.63;;
28762;SDS011;15918;51.270;6.522;2023-01-16T02:17:15;5.10;;;1.63;;
28762;SDS011;15918;51.270;6.522;2023-01-16T02:27:45;5.30;;;1.77;;
28762;SDS011;15918;51.270;6.522;2023-01-16T02:39:06;4.32;;;1.70;;
28762;SDS011;15918;51.270;6.522;2023-01-16T02:41:54;6.40;;;1.48;;
28762;SDS011;15918;51.270;6.522;2023-01-16T02:50:03;3.53;;;1.48;;
28762;SDS011;15918;51.270;6.522;2023-01-16T02:52:47;3.97;;;1.85;;
28762;SDS011;15918;51.270;6.522;2023-01-16T02:55:42;4.30;;;1.88;;
28762;SDS011;15918;51.270;6.522;2023-01-16T02:58:12;6.03;;;1.38;;
28762;SDS011;15918;51.270;6.522;2023-01-16T03:00:48;3.08;;;1.15;;
28762;SDS011;15918;51.270;6.522;2023-01-16T03:03:29;2.83;;;1.35;;
28762;SDS011;15918;51.270;6.522;2023-01-16T03:09:00;4.95;;;1.70;;
28762;SDS011;15918;51.270;6.522;2023-01-16T03:14:38;4.10;;;1.48;;
28762;SDS011;15918;51.270;6.522;2023-01-16T03:17:33;2.40;;;1.23;;
28762;SDS011;15918;51.270;6.522;2023-01-16T03:26:22;4.45;;;1.27;;
28762;SDS011;15918;51.270;6.522;2023-01-16T03:28:59;4.55;;;1.30;;
28762;SDS011;15918;51.270;6.522;2023-01-16T03:34:04;6.30;;;1.38;;
28762;SDS011;15918;51.270;6.522;2023-01-16T03:36:36;5.40;;;1.33;;
28762;SDS011;15918;51.270;6.522;2023-01-16T03:39:04;3.63;;;1.40;;
28762;SDS011;15918;51.270;6.522;2023-01-16T03:41:33;4.13;;;1.50;;
28762;SDS011;15918;51.270;6.522;2023-01-16T03:44:04;4.47;;;1.40;;
28762;SDS011;15918;51.270;6.522;2023-01-16T03:46:39;3.72;;;1.17;;
28762;SDS011;15918;51.270;6.522;2023-01-16T03:49:09;3.80;;;1.20;;
28762;SDS011;15918;51.270;6.522;2023-01-16T03:51:42;3.38;;;1.10;;
28762;SDS011;15918;51.270;6.522;2023-01-16T03:54:23;4.68;;;1.23;;
28762;SDS011;15918;51.270;6.522;2023-01-16T03:57:12;6.10;;;1.30;;
28762;SDS011;15918;51.270;6.522;2023-01-16T03:59:55;4.63;;;1.55;;
28762;SDS011;15918;51.270;6.522;2023-01-16T04:02:23;5.47;;;2.47;;
28762;SDS011;15918;51.270;6.522;2023-01-16T04:05:12;5.28;;;2.67;;
28762;SDS011;15918;51.270;6.522;2023-01-16T04:07:49;4.43;;;2.50;;
28762;SDS011;15918;51.270;6.522;2023-01-16T04:10:22;6.50;;;2.63;;
28762;SDS011;15918;51.270;6.522;2023-01-16T04:12:53;5.97;;;2.92;;
28762;SDS011;15918;51.270;6.522;2023-01-16T04:15:22;4.88;;;2.40;;
28762;SDS011;15918;51.270;6.522;2023-01-16T04:17:50;4.80;;;2.78;;
28762;SDS011;15918;51.270;6.522;2023-01-16T04:20:16;5.57;;;2.55;;
28762;SDS011;15918;51.270;6.522;2023-01-16T04:22:46;3.83;;;2.03;;
28762;SDS011;15918;51.270;6.522;2023-01-16T04:25:13;6.63;;;2.08;;
28762;SDS011;15918;51.270;6.522;2023-01-16T04:27:39;4.20;;;2.03;;
28762;SDS011;15918;51.270;6.522;2023-01-16T04:30:05;2.60;;;1.60;;
28762;SDS011;15918;51.270;6.522;2023-01-16T04:32:32;2.42;;;1.45;;
28762;SDS011;15918;51.270;6.522;2023-01-16T04:34:57;2.35;;;1.40;;
28762;SDS011;15918;51.270;6.522;2023-01-16T04:37:23;3.70;;;1.38;;
28762;SDS011;15918;51.270;6.522;2023-01-16T04:39:49;2.33;;;1.08;;
28762;SDS011;15918;51.270;6.522;2023-01-16T04:42:14;2.67;;;1.23;;
28762;SDS011;15918;51.270;6.522;2023-01-16T04:44:41;2.35;;;0.82;;
28762;SDS011;15918;51.270;6.522;2023-01-16T04:47:06;1.35;;;0.90;;
28762;SDS011;15918;51.270;6.522;2023-01-16T04:49:32;1.80;;;0.73;;
28762;SDS011;15918;51.270;6.522;2023-01-16T04:51:58;1.92;;;0.88;;
28762;SDS011;15918;51.270;6.522;2023-01-16T04:54:23;2.95;;;0.77;;
28762;SDS011;15918;51.270;6.522;2023-01-16T04:56:49;1.67;;;0.77;;
28762;SDS011;15918;51.270;6.522;2023-01-16T04:59:14;1.23;;;0.63;;
28762;SDS011;15918;51.270;6.522;2023-01-16T05:01:43;1.33;;;0.80;;
28762;SDS011;15918;51.270;6.522;2023-01-16T05:04:09;2.67;;;1.00;;
28762;SDS011;15918;51.270;6.522;2023-01-16T05:06:37;2.72;;;1.30;;
28762;SDS011;15918;51.270;6.522;2023-01-16T05:09:03;3.05;;;1.25;;
28762;SDS011;15918;51.270;6.522;2023-01-16T05:11:30;3.58;;;1.60;;
28762;SDS011;15918;51.270;6.522;2023-01-16T05:13:56;3.08;;;1.30;;
28762;SDS011;15918;51.270;6.522;2023-01-16T05:16:22;3.58;;;1.63;;
28762;SDS011;15918;51.270;6.522;2023-01-16T05:18:47;2.03;;;1.33;;
28762;SDS011;15918;51.270;6.522;2023-01-16T05:21:13;2.10;;;1.00;;
28762;SDS011;15918;51.270;6.522;2023-01-16T05:23:38;2.45;;;0.90;;
28762;SDS011;15918;51.270;6.522;2023-01-16T05:26:05;3.85;;;1.00;;
28762;SDS011;15918;51.270;6.522;2023-01-16T05:28:31;2.42;;;0.95;;
28762;SDS011;15918;51.270;6.522;2023-01-16T05:30:57;2.40;;;1.52;;
28762;SDS011;15918;51.270;6.522;2023-01-16T05:33:23;3.08;;;1.17;;
28762;SDS011;15918;51.270;6.522;2023-01-16T05:35:48;4.13;;;1.17;;
28762;SDS011;15918;51.270;6.522;2023-01-16T05:38:14;2.35;;;1.13;;
28762;SDS011;15918;51.270;6.522;2023-01-16T05:40:40;4.13;;;1.63;;
28762;SDS011;15918;51.270;6.522;2023-01-16T05:43:06;2.50;;;0.90;;
28762;SDS011;15918;51.270;6.522;2023-01-16T05:45:32;3.03;;;1.10;;
28762;SDS011;15918;51.270;6.522;2023-01-16T05:47:58;7.47;;;1.33;;
28762;SDS011;15918;51.270;6.522;2023-01-16T05:50:23;6.70;;;1.73;;
28762;SDS011;15918;51.270;6.522;2023-01-16T05:52:49;3.08;;;1.25;;
28762;SDS011;15918;51.270;6.522;2023-01-16T05:55:15;3.25;;;1.13;;
28762;SDS011;15918;51.270;6.522;2023-01-16T05:57:41;6.40;;;1.13;;
28762;SDS011;15918;51.270;6.522;2023-01-16T06:00:07;4.53;;;1.23;;
28762;SDS011;15918;51.270;6.522;2023-01-16T06:02:33;3.58;;;0.98;;
28762;SDS011;15918;51.270;6.522;2023-01-16T06:04:59;2.60;;;1.27;;
28762;SDS011;15918;51.270;6.522;2023-01-16T06:07:25;3.03;;;1.10;;
28762;SDS011;15918;51.270;6.522;2023-01-16T06:09:51;3.80;;;1.00;;
28762;SDS011;15918;51.270;6.522;2023-01-16T06:12:17;4.18;;;1.52;;
28762;SDS011;15918;51.270;6.522;2023-01-16T06:14:43;3.60;;;1.65;;
28762;SDS011;15918;51.270;6.522;2023-01-16T06:17:09;4.68;;;1.02;;
28762;SDS011;15918;51.270;6.522;2023-01-16T06:19:35;5.47;;;1.35;;
28762;SDS011;15918;51.270;6.522;2023-01-16T06:22:01;3.80;;;1.52;;
28762;SDS011;15918;51.270;6.522;2023-01-16T06:24:26;5.30;;;1.33;;
28762;SDS011;15918;51.270;6.522;2023-01-16T06:26:52;5.55;;;1.25;;
28762;SDS011;15918;51.270;6.522;2023-01-16T06:29:17;2.45;;;0.80;;
28762;SDS011;15918;51.270;6.522;2023-01-16T06:31:43;3.67;;;1.20;;
28762;SDS011;15918;51.270;6.522;2023-01-16T06:34:09;3.83;;;1.17;;
28762;SDS011;15918;51.270;6.522;2023-01-16T06:36:34;2.88;;;1.25;;
28762;SDS011;15918;51.270;6.522;2023-01-16T06:39:00;1.58;;;0.80;;
28762;SDS011;15918;51.270;6.522;2023-01-16T06:41:25;3.67;;;0.95;;
28762;SDS011;15918;51.270;6.522;2023-01-16T06:43:51;2.60;;;0.80;;
28762;SDS011;15918;51.270;6.522;2023-01-16T06:46:16;2.65;;;1.15;;
28762;SDS011;15918;51.270;6.522;2023-01-16T06:48:42;4.18;;;0.80;;
28762;SDS011;15918;51.270;6.522;2023-01-16T06:51:08;2.20;;;0.70;;
28762;SDS011;15918;51.270;6.522;2023-01-16T06:53:34;0.93;;;0.80;;
28762;SDS011;15918;51.270;6.522;2023-01-16T06:56:00;3.40;;;0.90;;
28762;SDS011;15918;51.270;6.522;2023-01-16T06:58:26;3.63;;;0.90;;
28762;SDS011;15918;51.270;6.522;2023-01-16T07:00:52;2.95;;;0.90;;
28762;SDS011;15918;51.270;6.522;2023-01-16T07:03:18;4.55;;;0.88;;
28762;SDS011;15918;51.270;6.522;2023-01-16T07:05:43;3.45;;;0.90;;
28762;SDS011;15918;51.270;6.522;2023-01-16T07:08:10;2.35;;;0.88;;
28762;SDS011;15918;51.270;6.522;2023-01-16T07:10:36;3.05;;;0.85;;
28762;SDS011;15918;51.270;6.522;2023-01-16T07:13:01;4.35;;;0.88;;
28762;SDS011;15918;51.270;6.522;2023-01-16T07:15:27;2.65;;;0.80;;
28762;SDS011;15918;51.270;6.522;2023-01-16T07:18:12;2.97;;;1.00;;
28762;SDS011;15918;51.270;6.522;2023-01-16T07:20:58;3.87;;;0.83;;
28762;SDS011;15918;51.270;6.522;2023-01-16T07:23:45;4.15;;;0.88;;
28762;SDS011;15918;51.270;6.522;2023-01-16T07:26:18;1.92;;;0.90;;
28762;SDS011;15918;51.270;6.522;2023-01-16T07:28:44;1.95;;;1.00;;
28762;SDS011;15918;51.270;6.522;2023-01-16T07:31:11;3.10;;;0.98;;
28762;SDS011;15918;51.270;6.522;2023-01-16T07:33:39;3.03;;;1.13;;
28762;SDS011;15918;51.270;6.522;2023-01-16T07:36:04;3.50;;;1.23;;
28762;SDS011;15918;51.270;6.522;2023-01-16T07:38:30;4.38;;;0.90;;
28762;SDS011;15918;51.270;6.522;2023-01-16T07:40:56;4.13;;;1.13;;
28762;SDS011;15918;51.270;6.522;2023-01-16T07:43:21;3.70;;;1.23;;
28762;SDS011;15918;51.270;6.522;2023-01-16T07:45:47;4.65;;;1.25;;
28762;SDS011;15918;51.270;6.522;2023-01-16T07:48:17;4.78;;;1.42;;
28762;SDS011;15918;51.270;6.522;2023-01-16T07:50:48;3.17;;;1.58;;
28762;SDS011;15918;51.270;6.522;2023-01-16T07:53:18;4.68;;;1.63;;
28762;SDS011;15918;51.270;6.522;2023-01-16T07:55:50;3.70;;;1.65;;
28762;SDS011;15918;51.270;6.522;2023-01-16T07:58:18;2.05;;;1.48;;
28762;SDS011;15918;51.270;6.522;2023-01-16T08:00:44;3.65;;;1.33;;
28762;SDS011;15918;51.270;6.522;2023-01-16T08:03:10;2.92;;;1.23;;
28762;SDS011;15918;51.270;6.522;2023-01-16T08:05:36;7.45;;;1.30;;
28762;SDS011;15918;51.270;6.522;2023-01-16T08:08:02;2.53;;;1.50;;
28762;SDS011;15918;51.270;6.522;2023-01-16T08:10:28;6.60;;;1.95;;
28762;SDS011;15918;51.270;6.522;2023-01-16T08:12:54;6.28;;;2.17;;
28762;SDS011;15918;51.270;6.522;2023-01-16T08:15:19;4.93;;;1.80;;
28762;SDS011;15918;51.270;6.522;2023-01-16T08:17:45;3.58;;;1.70;;
28762;SDS011;15918;51.270;6.522;2023-01-16T08:20:10;3.15;;;1.38;;
28762;SDS011;15918;51.270;6.522;2023-01-16T08:22:43;2.65;;;1.67;;
28762;SDS011;15918;51.270;6.522;2023-01-16T08:25:13;1.77;;;1.35;;
28762;SDS011;15918;51.270;6.522;2023-01-16T08:27:39;6.88;;;1.70;;
28762;SDS011;15918;51.270;6.522;2023-01-16T08:30:05;3.55;;;1.55;;
28762;SDS011;15918;51.270;6.522;2023-01-16T08:32:32;4.60;;;1.88;;
28762;SDS011;15918;51.270;6.522;2023-01-16T08:34:58;3.70;;;1.75;;
28762;SDS011;15918;51.270;6.522;2023-01-16T08:37:23;4.75;;;1.90;;
28762;SDS011;15918;51.270;6.522;2023-01-16T08:39:49;3.95;;;1.70;;
28762;SDS011;15918;51.270;6.522;2023-01-16T08:42:14;3.72;;;1.30;;
28762;SDS011;15918;51.270;6.522;2023-01-16T08:44:58;4.22;;;1.55;;
28762;SDS011;15918;51.270;6.522;2023-01-16T08:47:43;3.60;;;1.27;;
28762;SDS011;15918;51.270;6.522;2023-01-16T08:50:26;3.72;;;1.63;;
28762;SDS011;15918;51.270;6.522;2023-01-16T08:53:11;5.78;;;1.83;;
28762;SDS011;15918;51.270;6.522;2023-01-16T08:55:36;3.97;;;1.75;;
28762;SDS011;15918;51.270;6.522;2023-01-16T08:58:04;6.18;;;1.67;;
28762;SDS011;15918;51.270;6.522;2023-01-16T09:00:30;4.43;;;1.48;;
28762;SDS011;15918;51.270;6.522;2023-01-16T09:02:56;5.45;;;1.35;;
28762;SDS011;15918;51.270;6.522;2023-01-16T09:05:24;4.30;;;1.52;;
28762;SDS011;15918;51.270;6.522;2023-01-16T09:07:50;3.50;;;1.40;;
28762;SDS011;15918;51.270;6.522;2023-01-16T09:10:16;3.55;;;1.50;;
28762;SDS011;15918;51.270;6.522;2023-01-16T09:12:42;3.03;;;1.20;;
28762;SDS011;15918;51.270;6.522;2023-01-16T09:15:26;5.40;;;1.20;;
28762;SDS011;15918;51.270;6.522;2023-01-16T09:17:51;3.10;;;1.40;;
28762;SDS011;15918;51.270;6.522;2023-01-16T09:20:17;5.60;;;1.33;;
28762;SDS011;15918;51.270;6.522;2023-01-16T09:22:43;5.68;;;1.58;;
28762;SDS011;15918;51.270;6.522;2023-01-16T09:25:08;4.57;;;1.55;;
28762;SDS011;15918;51.270;6.522;2023-01-16T09:27:34;3.10;;;1.30;;
28762;SDS011;15918;51.270;6.522;2023-01-16T09:30:00;3.70;;;1.35;;
28762;SDS011;15918;51.270;6.522;2023-01-16T09:32:26;2.03;;;1.50;;
28762;SDS011;15918;51.270;6.522;2023-01-16T09:34:51;3.03;;;1.00;;
28762;SDS011;15918;51.270;6.522;2023-01-16T09:37:17;3.15;;;1.25;;
28762;SDS011;15918;51.270;6.522;2023-01-16T09:39:43;2.63;;;1.05;;
28762;SDS011;15918;51.270;6.522;2023-01-16T09:45:06;2.60;;;1.30;;
28762;SDS011;15918;51.270;6.522;2023-01-16T09:47:35;2.20;;;1.13;;
28762;SDS011;15918;51.270;6.522;2023-01-16T09:50:10;2.33;;;1.15;;
28762;SDS011;15918;51.270;6.522;2023-01-16T09:52:39;2.55;;;1.00;;
28762;SDS011;15918;51.270;6.522;2023-01-16T09:55:40;1.73;;;0.90;;
28762;SDS011;15918;51.270;6.522;2023-01-16T09:58:26;3.40;;;1.02;;
28762;SDS011;15918;51.270;6.522;2023-01-16T10:01:00;3.40;;;1.10;;
28762;SDS011;15918;51.270;6.522;2023-01-16T10:03:34;2.08;;;0.77;;
28762;SDS011;15918;51.270;6.522;2023-01-16T10:06:11;3.03;;;0.80;;
28762;SDS011;15918;51.270;6.522;2023-01-16T10:08:46;3.53;;;1.25;;
28762;SDS011;15918;51.270;6.522;2023-01-16T10:11:48;3.50;;;1.20;;
28762;SDS011;15918;51.270;6.522;2023-01-16T10:16:59;2.13;;;0.93;;
28762;SDS011;15918;51.270;6.522;2023-01-16T10:22:20;1.83;;;0.82;;
28762;SDS011;15918;51.270;6.522;2023-01-16T10:24:54;0.90;;;0.80;;
28762;SDS011;15918;51.270;6.522;2023-01-16T10:30:26;2.13;;;0.80;;
28762;SDS011;15918;51.270;6.522;2023-01-16T10:33:13;3.08;;;0.88;;
28762;SDS011;15918;51.270;6.522;2023-01-16T10:36:01;3.13;;;0.90;;
28762;SDS011;15918;51.270;6.522;2023-01-16T10:38:37;1.05;;;0.57;;
28762;SDS011;15918;51.270;6.522;2023-01-16T10:41:35;1.95;;;0.63;;
28762;SDS011;15918;51.270;6.522;2023-01-16T10:44:32;2.38;;;0.82;;
28762;SDS011;15918;51.270;6.522;2023-01-16T10:47:22;0.55;;;0.55;;
28762;SDS011;15918;51.270;6.522;2023-01-16T10:50:08;1.90;;;0.60;;
28762;SDS011;15918;51.270;6.522;2023-01-16T10:52:35;3.20;;;1.15;;
28762;SDS011;15918;51.270;6.522;2023-01-16T10:55:02;3.15;;;1.10;;
28762;SDS011;15918;51.270;6.522;2023-01-16T10:57:29;2.67;;;1.33;;
28762;SDS011;15918;51.270;6.522;2023-01-16T11:00:06;1.20;;;0.80;;
28762;SDS011;15918;51.270;6.522;2023-01-16T11:02:43;2.35;;;1.00;;
28762;SDS011;15918;51.270;6.522;2023-01-16T11:05:43;2.13;;;0.80;;
28762;SDS011;15918;51.270;6.522;2023-01-16T11:08:06;4.88;;;0.93;;
28762;SDS011;15918;51.270;6.522;2023-01-16T11:10:37;2.38;;;0.68;;
28762;SDS011;15918;51.270;6.522;2023-01-16T11:13:04;1.23;;;0.70;;
28762;SDS011;15918;51.270;6.522;2023-01-16T11:16:02;1.83;;;0.73;;
28762;SDS011;15918;51.270;6.522;2023-01-16T11:19:17;3.42;;;1.05;;
28762;SDS011;15918;51.270;6.522;2023-01-16T11:21:56;2.10;;;1.30;;
28762;SDS011;15918;51.270;6.522;2023-01-16T11:24:33;1.58;;;1.10;;
28762;SDS011;15918;51.270;6.522;2023-01-16T11:27:00;3.08;;;1.15;;
28762;SDS011;15918;51.270;6.522;2023-01-16T11:29:36;1.90;;;0.98;;
28762;SDS011;15918;51.270;6.522;2023-01-16T11:32:08;0.65;;;0.60;;
28762;SDS011;15918;51.270;6.522;2023-01-16T11:34:37;1.08;;;0.63;;
28762;SDS011;15918;51.270;6.522;2023-01-16T11:37:09;1.02;;;0.68;;
28762;SDS011;15918;51.270;6.522;2023-01-16T11:39:37;1.58;;;0.88;;
28762;SDS011;15918;51.270;6.522;2023-01-16T11:42:04;1.27;;;0.80;;
28762;SDS011;15918;51.270;6.522;2023-01-16T11:44:54;0.70;;;0.65;;
28762;SDS011;15918;51.270;6.522;2023-01-16T11:47:41;1.00;;;0.60;;
28762;SDS011;15918;51.270;6.522;2023-01-16T11:50:26;1.00;;;0.60;;
28762;SDS011;15918;51.270;6.522;2023-01-16T11:52:57;0.82;;;0.52;;
28762;SDS011;15918;51.270;6.522;2023-01-16T11:55:32;0.63;;;0.43;;
28762;SDS011;15918;51.270;6.522;2023-01-16T12:09:33;1.30;;;0.70;;
28762;SDS011;15918;51.270;6.522;2023-01-16T12:15:13;2.35;;;0.75;;
28762;SDS011;15918;51.270;6.522;2023-01-16T12:20:14;1.23;;;0.80;;
28762;SDS011;15918;51.270;6.522;2023-01-16T12:28:38;1.05;;;0.75;;
28762;SDS011;15918;51.270;6.522;2023-01-16T12:31:34;1.33;;;0.68;;
28762;SDS011;15918;51.270;6.522;2023-01-16T12:37:07;1.65;;;0.85;;
28762;SDS011;15918;51.270;6.522;2023-01-16T12:39:44;2.20;;;0.70;;
28762;SDS011;15918;51.270;6.522;2023-01-16T12:54:02;3.20;;;1.30;;
28762;SDS011;15918;51.270;6.522;2023-01-16T12:57:03;1.27;;;0.77;;
28762;SDS011;15918;51.270;6.522;2023-01-16T12:59:53;4.47;;;1.00;;
28762;SDS011;15918;51.270;6.522;2023-01-16T13:05:15;1.90;;;0.90;;
28762;SDS011;15918;51.270;6.522;2023-01-16T13:07:56;4.70;;;0.93;;
28762;SDS011;15918;51.270;6.522;2023-01-16T13:10:54;1.75;;;0.90;;
28762;SDS011;15918;51.270;6.522;2023-01-16T13:13:45;1.60;;;0.90;;
28762;SDS011;15918;51.270;6.522;2023-01-16T13:16:38;1.38;;;0.80;;
28762;SDS011;15918;51.270;6.522;2023-01-16T13:19:17;1.83;;;0.90;;
28762;SDS011;15918;51.270;6.522;2023-01-16T13:21:52;1.05;;;0.95;;
28762;SDS011;15918;51.270;6.522;2023-01-16T13:24:34;3.38;;;1.10;;
28762;SDS011;15918;51.270;6.522;2023-01-16T13:27:13;1.35;;;1.10;;
28762;SDS011;15918;51.270;6.522;2023-01-16T13:29:42;2.45;;;1.13;;
28762;SDS011;15918;51.270;6.522;2023-01-16T13:32:26;1.63;;;1.10;;
28762;SDS011;15918;51.270;6.522;2023-01-16T13:42:57;2.50;;;1.05;;
28762;SDS011;15918;51.270;6.522;2023-01-16T13:45:48;1.85;;;1.00;;
28762;SDS011;15918;51.270;6.522;2023-01-16T13:48:18;2.60;;;1.20;;
28762;SDS011;15918;51.270;6.522;2023-01-16T13:51:31;3.05;;;1.00;;
28762;SDS011;15918;51.270;6.522;2023-01-16T13:53:38;1.70;;;1.10;;
28762;SDS011;15918;51.270;6.522;2023-01-16T13:58:33;5.43;;;1.10;;
28762;SDS011;15918;51.270;6.522;2023-01-16T14:01:04;1.50;;;1.05;;
28762;SDS011;15918;51.270;6.522;2023-01-16T14:03:32;2.05;;;1.02;;
28762;SDS011;15918;51.270;6.522;2023-01-16T14:08:45;1.80;;;1.20;;
28762;SDS011;15918;51.270;6.522;2023-01-16T14:17:29;1.88;;;1.20;;
28762;SDS011;15918;51.270;6.522;2023-01-16T14:26:07;1.45;;;1.15;;
28762;SDS011;15918;51.270;6.522;2023-01-16T14:28:35;3.03;;;1.40;;
28762;SDS011;15918;51.270;6.522;2023-01-16T14:31:03;1.80;;;1.38;;
28762;SDS011;15918;51.270;6.522;2023-01-16T14:33:29;2.55;;;1.00;;
28762;SDS011;15918;51.270;6.522;2023-01-16T14:35:56;1.35;;;1.02;;
28762;SDS011;15918;51.270;6.522;2023-01-16T14:38:24;1.70;;;1.15;;
28762;SDS011;15918;51.270;6.522;2023-01-16T14:44:02;1.25;;;1.10;;
28762;SDS011;15918;51.270;6.522;2023-01-16T14:47:05;2.25;;;1.10;;
28762;SDS011;15918;51.270;6.522;2023-01-16T14:50:04;3.17;;;1.45;;
28762;SDS011;15918;51.270;6.522;2023-01-16T14:52:51;2.28;;;1.15;;
28762;SDS011;15918;51.270;6.522;2023-01-16T14:58:52;4.57;;;1.50;;
28762;SDS011;15918;51.270;6.522;2023-01-16T15:01:28;1.65;;;1.10;;
28762;SDS011;15918;51.270;6.522;2023-01-16T15:04:18;2.33;;;1.50;;
28762;SDS011;15918;51.270;6.522;2023-01-16T15:06:55;1.30;;;1.20;;
28762;SDS011;15918;51.270;6.522;2023-01-16T15:09:24;3.17;;;1.25;;
28762;SDS011;15918;51.270;6.522;2023-01-16T15:11:56;1.52;;;1.35;;
28762;SDS011;15918;51.270;6.522;2023-01-16T15:14:24;2.08;;;1.42;;
28762;SDS011;15918;51.270;6.522;2023-01-16T15:22:49;2.90;;;1.65;;
28762;SDS011;15918;51.270;6.522;2023-01-16T15:25:22;2.45;;;1.45;;
28762;SDS011;15918;51.270;6.522;2023-01-16T15:28:00;2.90;;;1.48;;
28762;SDS011;15918;51.270;6.522;2023-01-16T15:30:41;2.45;;;1.27;;
28762;SDS011;15918;51.270;6.522;2023-01-16T15:33:20;2.45;;;1.10;;
28762;SDS011;15918;51.270;6.522;2023-01-16T15:36:14;4.07;;;1.20;;
28762;SDS011;15918;51.270;6.522;2023-01-16T15:38:43;3.42;;;1.10;;
28762;SDS011;15918;51.270;6.522;2023-01-16T15:41:10;1.92;;;1.20;;
28762;SDS011;15918;51.270;6.522;2023-01-16T15:43:37;1.45;;;1.00;;
28762;SDS011;15918;51.270;6.522;2023-01-16T15:49:11;3.80;;;1.40;;
28762;SDS011;15918;51.270;6.522;2023-01-16T15:51:52;2.47;;;1.35;;
28762;SDS011;15918;51.270;6.522;2023-01-16T15:54:18;1.75;;;1.40;;
28762;SDS011;15918;51.270;6.522;2023-01-16T15:56:44;1.88;;;1.33;;
28762;SDS011;15918;51.270;6.522;2023-01-16T15:59:28;1.52;;;1.38;;
28762;SDS011;15918;51.270;6.522;2023-01-16T16:02:20;2.25;;;1.02;;
28762;SDS011;15918;51.270;6.522;2023-01-16T16:04:50;3.13;;;1.80;;
28762;SDS011;15918;51.270;6.522;2023-01-16T16:07:18;3.90;;;2.03;;
28762;SDS011;15918;51.270;6.522;2023-01-16T16:09:47;2.13;;;1.65;;
28762;SDS011;15918;51.270;6.522;2023-01-16T16:12:15;2.40;;;1.70;;
28762;SDS011;15918;51.270;6.522;2023-01-16T16:14:42;4.22;;;1.58;;
28762;SDS011;15918;51.270;6.522;2023-01-16T16:17:30;2.95;;;1.60;;
28762;SDS011;15918;51.270;6.522;2023-01-16T16:30:55;3.45;;;1.70;;
28762;SDS011;15918;51.270;6.522;2023-01-16T16:33:23;1.63;;;1.45;;
28762;SDS011;15918;51.270;6.522;2023-01-16T16:35:51;3.38;;;1.80;;
28762;SDS011;15918;51.270;6.522;2023-01-16T16:38:26;3.50;;;1.63;;
28762;SDS011;15918;51.270;6.522;2023-01-16T16:48:58;3.88;;;2.58;;
28762;SDS011;15918;51.270;6.522;2023-01-16T16:51:35;4.30;;;3.00;;
28762;SDS011;15918;51.270;6.522;2023-01-16T16:54:04;3.78;;;2.83;;
28762;SDS011;15918;51.270;6.522;2023-01-16T16:56:34;2.80;;;2.50;;
28762;SDS011;15918;51.270;6.522;2023-01-16T16:59:02;3.45;;;2.90;;
28762;SDS011;15918;51.270;6.522;2023-01-16T17:01:28;2.92;;;2.50;;
28762;SDS011;15918;51.270;6.522;2023-01-16T17:03:55;4.70;;;2.40;;
28762;SDS011;15918;51.270;6.522;2023-01-16T17:06:24;2.42;;;2.22;;
28762;SDS011;15918;51.270;6.522;2023-01-16T17:08:53;3.50;;;1.92;;
28762;SDS011;15918;51.270;6.522;2023-01-16T17:11:19;2.47;;;2.28;;
28762;SDS011;15918;51.270;6.522;2023-01-16T17:13:45;2.97;;;2.30;;
28762;SDS011;15918;51.270;6.522;2023-01-16T17:16:15;3.35;;;2.35;;
28762;SDS011;15918;51.270;6.522;2023-01-16T17:18:42;2.85;;;1.70;;
28762;SDS011;15918;51.270;6.522;2023-01-16T17:21:09;2.17;;;1.75;;
28762;SDS011;15918;51.270;6.522;2023-01-16T17:23:38;1.88;;;1.70;;
28762;SDS011;15918;51.270;6.522;2023-01-16T17:26:03;2.20;;;2.00;;
28762;SDS011;15918;51.270;6.522;2023-01-16T17:28:29;2.05;;;1.48;;
28762;SDS011;15918;51.270;6.522;2023-01-16T17:30:54;2.08;;;1.70;;
28762;SDS011;15918;51.270;6.522;2023-01-16T17:33:20;2.88;;;1.55;;
28762;SDS011;15918;51.270;6.522;2023-01-16T17:35:47;5.03;;;1.70;;
28762;SDS011;15918;51.270;6.522;2023-01-16T17:38:34;2.53;;;1.25;;
28762;SDS011;15918;51.270;6.522;2023-01-16T17:41:03;2.17;;;1.40;;
28762;SDS011;15918;51.270;6.522;2023-01-16T17:43:39;2.63;;;1.80;;